sensor_id;sensor_type;location;lat;lon;timestamp;P1;durP1;ratioP1;P2;durP2;ratioP2
3217;SDS011;1621;49.702;8.618;2022-08-25T00:00:19;5.63;;;3.47;;
3217;SDS011;1621;49.702;8.618;2022-08-25T00:02:45;4.20;;;3.33;;
3217;SDS011;1621;49.702;8.618;2022-08-25T00:05:11;5.37;;;4.23;;
3217;SDS011;1621;49.702;8.618;2022-08-25T00:07:39;4.57;;;3.50;;
3217;SDS011;1621;49.702;8.618;2022-08-25T00:10:06;5.30;;;3.50;;
3217;SDS011;1621;49.702;8.618;2022-08-25T00:12:33;5.63;;;3.60;;
3217;SDS011;1621;49.702;8.618;2022-08-25T00:14:59;4.83;;;3.33;;
3217;SDS011;1621;49.702;8.618;2022-08-25T00:17:25;4.60;;;3.40;;
3217;SDS011;1621;49.702;8.618;2022-08-25T00:19:52;4.30;;;3.40;;
3217;SDS011;1621;49.702;8.618;2022-08-25T00:22:18;4.20;;;3.00;;
3217;SDS011;1621;49.702;8.618;2022-08-25T00:24:45;5.10;;;3.90;;
3217;SDS011;1621;49.702;8.618;2022-08-25T00:27:12;4.10;;;3.37;;
3217;SDS011;1621;49.702;8.618;2022-08-25T00:29:38;6.17;;;3.73;;
3217;SDS011;1621;49.702;8.618;2022-08-25T00:32:05;8.40;;;4.13;;
3217;SDS011;1621;49.702;8.618;2022-08-25T00:34:32;4.77;;;3.30;;
3217;SDS011;1621;49.702;8.618;2022-08-25T00:36:59;7.90;;;4.33;;
3217;SDS011;1621;49.702;8.618;2022-08-25T00:39:25;6.17;;;4.30;;
3217;SDS011;1621;49.702;8.618;2022-08-25T00:41:54;4.80;;;4.17;;
3217;SDS011;1621;49.702;8.618;2022-08-25T00:44:21;7.30;;;4.10;;
3217;SDS011;1621;49.702;8.618;2022-08-25T00:46:48;6.70;;;4.40;;
3217;SDS011;1621;49.702;8.618;2022-08-25T00:49:16;5.67;;;3.50;;
3217;SDS011;1621;49.702;8.618;2022-08-25T00:51:45;5.33;;;4.30;;
3217;SDS011;1621;49.702;8.618;2022-08-25T00:54:14;5.90;;;4.37;;
3217;SDS011;1621;49.702;8.618;2022-08-25T00:56:41;4.30;;;3.70;;
3217;SDS011;1621;49.702;8.618;2022-08-25T00:59:09;6.13;;;4.50;;
3217;SDS011;1621;49.702;8.618;2022-08-25T01:01:36;5.20;;;3.43;;
3217;SDS011;1621;49.702;8.618;2022-08-25T01:04:02;5.47;;;4.53;;
3217;SDS011;1621;49.702;8.618;2022-08-25T01:06:28;5.30;;;4.50;;
3217;SDS011;1621;49.702;8.618;2022-08-25T01:08:57;7.67;;;4.43;;
3217;SDS011;1621;49.702;8.618;2022-08-25T01:11:24;5.10;;;4.10;;
3217;SDS011;1621;49.702;8.618;2022-08-25T01:13:52;4.77;;;4.27;;
3217;SDS011;1621;49.702;8.618;2022-08-25T01:16:20;5.77;;;4.60;;
3217;SDS011;1621;49.702;8.618;2022-08-25T01:18:47;7.30;;;4.80;;
3217;SDS011;1621;49.702;8.618;2022-08-25T01:21:16;6.07;;;4.43;;
3217;SDS011;1621;49.702;8.618;2022-08-25T01:23:43;5.60;;;4.87;;
3217;SDS011;1621;49.702;8.618;2022-08-25T01:26:10;7.30;;;5.33;;
3217;SDS011;1621;49.702;8.618;2022-08-25T01:28:38;5.20;;;4.20;;
3217;SDS011;1621;49.702;8.618;2022-08-25T01:31:25;5.90;;;4.90;;
3217;SDS011;1621;49.702;8.618;2022-08-25T01:33:51;6.17;;;5.10;;
3217;SDS011;1621;49.702;8.618;2022-08-25T01:36:19;5.53;;;4.30;;
3217;SDS011;1621;49.702;8.618;2022-08-25T01:38:45;5.03;;;4.03;;
3217;SDS011;1621;49.702;8.618;2022-08-25T01:41:11;6.87;;;5.47;;
3217;SDS011;1621;49.702;8.618;2022-08-25T01:43:41;6.93;;;5.13;;
3217;SDS011;1621;49.702;8.618;2022-08-25T01:46:07;22.17;;;4.93;;
3217;SDS011;1621;49.702;8.618;2022-08-25T01:48:33;6.27;;;4.83;;
3217;SDS011;1621;49.702;8.618;2022-08-25T01:51:00;8.33;;;5.27;;
3217;SDS011;1621;49.702;8.618;2022-08-25T01:53:29;6.03;;;4.80;;
3217;SDS011;1621;49.702;8.618;2022-08-25T01:55:55;5.63;;;5.03;;
3217;SDS011;1621;49.702;8.618;2022-08-25T01:58:27;10.63;;;4.83;;
3217;SDS011;1621;49.702;8.618;2022-08-25T02:00:57;6.33;;;4.63;;
3217;SDS011;1621;49.702;8.618;2022-08-25T02:03:24;11.03;;;5.43;;
3217;SDS011;1621;49.702;8.618;2022-08-25T02:05:51;6.90;;;5.27;;
3217;SDS011;1621;49.702;8.618;2022-08-25T02:08:17;6.70;;;5.10;;
3217;SDS011;1621;49.702;8.618;2022-08-25T02:10:45;5.73;;;4.70;;
3217;SDS011;1621;49.702;8.618;2022-08-25T02:13:12;6.23;;;4.80;;
3217;SDS011;1621;49.702;8.618;2022-08-25T02:15:39;8.27;;;4.57;;
3217;SDS011;1621;49.702;8.618;2022-08-25T02:18:05;6.87;;;5.40;;
3217;SDS011;1621;49.702;8.618;2022-08-25T02:20:32;6.63;;;5.07;;
3217;SDS011;1621;49.702;8.618;2022-08-25T02:22:58;7.43;;;5.30;;
3217;SDS011;1621;49.702;8.618;2022-08-25T02:25:25;5.27;;;4.63;;
3217;SDS011;1621;49.702;8.618;2022-08-25T02:27:52;6.37;;;5.00;;
3217;SDS011;1621;49.702;8.618;2022-08-25T02:30:19;8.87;;;5.00;;
3217;SDS011;1621;49.702;8.618;2022-08-25T02:32:45;6.20;;;4.70;;
3217;SDS011;1621;49.702;8.618;2022-08-25T02:35:11;8.90;;;4.50;;
3217;SDS011;1621;49.702;8.618;2022-08-25T02:37:37;6.07;;;4.90;;
3217;SDS011;1621;49.702;8.618;2022-08-25T02:40:04;8.00;;;5.20;;
3217;SDS011;1621;49.702;8.618;2022-08-25T02:42:31;5.43;;;4.83;;
3217;SDS011;1621;49.702;8.618;2022-08-25T02:44:58;5.90;;;4.67;;
3217;SDS011;1621;49.702;8.618;2022-08-25T02:47:25;7.10;;;5.37;;
3217;SDS011;1621;49.702;8.618;2022-08-25T02:49:51;6.87;;;4.60;;
3217;SDS011;1621;49.702;8.618;2022-08-25T02:52:17;8.00;;;5.40;;
3217;SDS011;1621;49.702;8.618;2022-08-25T02:54:44;7.53;;;5.50;;
3217;SDS011;1621;49.702;8.618;2022-08-25T02:57:10;6.43;;;4.83;;
3217;SDS011;1621;49.702;8.618;2022-08-25T02:59:36;5.77;;;4.50;;
3217;SDS011;1621;49.702;8.618;2022-08-25T03:02:04;7.57;;;5.20;;
3217;SDS011;1621;49.702;8.618;2022-08-25T03:04:31;7.00;;;5.07;;
3217;SDS011;1621;49.702;8.618;2022-08-25T03:06:57;6.67;;;5.33;;
3217;SDS011;1621;49.702;8.618;2022-08-25T03:09:23;7.80;;;5.50;;
3217;SDS011;1621;49.702;8.618;2022-08-25T03:11:49;6.30;;;5.13;;
3217;SDS011;1621;49.702;8.618;2022-08-25T03:14:16;6.50;;;4.80;;
3217;SDS011;1621;49.702;8.618;2022-08-25T03:16:42;6.37;;;5.10;;
3217;SDS011;1621;49.702;8.618;2022-08-25T03:19:09;6.77;;;4.97;;
3217;SDS011;1621;49.702;8.618;2022-08-25T03:21:36;7.23;;;4.60;;
3217;SDS011;1621;49.702;8.618;2022-08-25T03:24:03;6.80;;;5.40;;
3217;SDS011;1621;49.702;8.618;2022-08-25T03:26:29;6.67;;;4.77;;
3217;SDS011;1621;49.702;8.618;2022-08-25T03:29:13;7.67;;;5.73;;
3217;SDS011;1621;49.702;8.618;2022-08-25T03:31:40;9.93;;;5.00;;
3217;SDS011;1621;49.702;8.618;2022-08-25T03:34:07;6.30;;;4.57;;
3217;SDS011;1621;49.702;8.618;2022-08-25T03:36:35;5.63;;;3.80;;
3217;SDS011;1621;49.702;8.618;2022-08-25T03:39:02;6.50;;;4.73;;
3217;SDS011;1621;49.702;8.618;2022-08-25T03:41:29;8.47;;;4.83;;
3217;SDS011;1621;49.702;8.618;2022-08-25T03:43:56;7.40;;;4.33;;
3217;SDS011;1621;49.702;8.618;2022-08-25T03:46:24;7.97;;;4.77;;
3217;SDS011;1621;49.702;8.618;2022-08-25T03:48:51;7.27;;;4.07;;
3217;SDS011;1621;49.702;8.618;2022-08-25T03:51:18;7.50;;;4.07;;
3217;SDS011;1621;49.702;8.618;2022-08-25T03:53:46;7.03;;;5.00;;
3217;SDS011;1621;49.702;8.618;2022-08-25T03:56:12;6.80;;;4.80;;
3217;SDS011;1621;49.702;8.618;2022-08-25T03:58:38;6.27;;;4.50;;
3217;SDS011;1621;49.702;8.618;2022-08-25T04:01:05;10.70;;;4.83;;
3217;SDS011;1621;49.702;8.618;2022-08-25T04:03:31;6.27;;;4.80;;
3217;SDS011;1621;49.702;8.618;2022-08-25T04:05:59;6.67;;;5.07;;
3217;SDS011;1621;49.702;8.618;2022-08-25T04:08:25;6.27;;;4.27;;
3217;SDS011;1621;49.702;8.618;2022-08-25T04:10:53;6.33;;;4.80;;
3217;SDS011;1621;49.702;8.618;2022-08-25T04:13:19;6.40;;;4.50;;
3217;SDS011;1621;49.702;8.618;2022-08-25T04:15:46;9.17;;;4.77;;
3217;SDS011;1621;49.702;8.618;2022-08-25T04:18:13;5.10;;;4.43;;
3217;SDS011;1621;49.702;8.618;2022-08-25T04:20:40;6.70;;;5.53;;
3217;SDS011;1621;49.702;8.618;2022-08-25T04:23:06;9.87;;;5.40;;
3217;SDS011;1621;49.702;8.618;2022-08-25T04:25:32;6.20;;;4.87;;
3217;SDS011;1621;49.702;8.618;2022-08-25T04:28:00;6.57;;;5.30;;
3217;SDS011;1621;49.702;8.618;2022-08-25T04:30:26;6.97;;;5.20;;
3217;SDS011;1621;49.702;8.618;2022-08-25T04:32:53;12.13;;;4.47;;
3217;SDS011;1621;49.702;8.618;2022-08-25T04:35:19;6.77;;;4.60;;
3217;SDS011;1621;49.702;8.618;2022-08-25T04:37:46;7.13;;;4.80;;
3217;SDS011;1621;49.702;8.618;2022-08-25T04:40:13;12.37;;;4.70;;
3217;SDS011;1621;49.702;8.618;2022-08-25T04:42:39;11.13;;;5.30;;
3217;SDS011;1621;49.702;8.618;2022-08-25T04:45:07;6.90;;;4.90;;
3217;SDS011;1621;49.702;8.618;2022-08-25T04:47:35;8.43;;;4.40;;
3217;SDS011;1621;49.702;8.618;2022-08-25T04:50:02;9.77;;;4.87;;
3217;SDS011;1621;49.702;8.618;2022-08-25T04:52:28;12.73;;;5.23;;
3217;SDS011;1621;49.702;8.618;2022-08-25T04:54:54;8.83;;;4.60;;
3217;SDS011;1621;49.702;8.618;2022-08-25T04:57:21;9.80;;;5.17;;
3217;SDS011;1621;49.702;8.618;2022-08-25T04:59:47;9.07;;;4.83;;
3217;SDS011;1621;49.702;8.618;2022-08-25T05:02:15;10.50;;;4.17;;
3217;SDS011;1621;49.702;8.618;2022-08-25T05:04:41;7.77;;;5.03;;
3217;SDS011;1621;49.702;8.618;2022-08-25T05:07:07;7.33;;;4.93;;
3217;SDS011;1621;49.702;8.618;2022-08-25T05:09:33;6.40;;;4.50;;
3217;SDS011;1621;49.702;8.618;2022-08-25T05:12:02;6.27;;;5.03;;
3217;SDS011;1621;49.702;8.618;2022-08-25T05:14:28;9.73;;;4.87;;
3217;SDS011;1621;49.702;8.618;2022-08-25T05:16:55;6.87;;;4.97;;
3217;SDS011;1621;49.702;8.618;2022-08-25T05:19:23;11.93;;;5.23;;
3217;SDS011;1621;49.702;8.618;2022-08-25T05:21:50;6.50;;;4.50;;
3217;SDS011;1621;49.702;8.618;2022-08-25T05:24:16;9.40;;;5.63;;
3217;SDS011;1621;49.702;8.618;2022-08-25T05:26:42;10.07;;;4.37;;
3217;SDS011;1621;49.702;8.618;2022-08-25T05:29:09;9.03;;;4.90;;
3217;SDS011;1621;49.702;8.618;2022-08-25T05:31:35;9.00;;;5.80;;
3217;SDS011;1621;49.702;8.618;2022-08-25T05:34:04;7.93;;;6.80;;
3217;SDS011;1621;49.702;8.618;2022-08-25T05:36:31;8.90;;;6.67;;
3217;SDS011;1621;49.702;8.618;2022-08-25T05:38:58;7.83;;;6.90;;
3217;SDS011;1621;49.702;8.618;2022-08-25T05:41:25;10.23;;;6.77;;
3217;SDS011;1621;49.702;8.618;2022-08-25T05:43:52;11.10;;;7.37;;
3217;SDS011;1621;49.702;8.618;2022-08-25T05:46:19;7.20;;;6.20;;
3217;SDS011;1621;49.702;8.618;2022-08-25T05:48:46;7.67;;;6.87;;
3217;SDS011;1621;49.702;8.618;2022-08-25T05:51:13;7.00;;;6.20;;
3217;SDS011;1621;49.702;8.618;2022-08-25T05:53:42;7.73;;;5.97;;
3217;SDS011;1621;49.702;8.618;2022-08-25T05:56:08;8.00;;;6.80;;
3217;SDS011;1621;49.702;8.618;2022-08-25T05:58:35;11.50;;;7.77;;
3217;SDS011;1621;49.702;8.618;2022-08-25T06:01:01;12.87;;;7.73;;
3217;SDS011;1621;49.702;8.618;2022-08-25T06:03:48;9.77;;;7.00;;
3217;SDS011;1621;49.702;8.618;2022-08-25T06:06:14;10.70;;;7.90;;
3217;SDS011;1621;49.702;8.618;2022-08-25T06:08:42;10.77;;;7.10;;
3217;SDS011;1621;49.702;8.618;2022-08-25T06:11:09;13.17;;;8.03;;
3217;SDS011;1621;49.702;8.618;2022-08-25T06:13:35;14.30;;;8.17;;
3217;SDS011;1621;49.702;8.618;2022-08-25T06:16:02;12.70;;;7.87;;
3217;SDS011;1621;49.702;8.618;2022-08-25T06:18:28;8.03;;;6.50;;
3217;SDS011;1621;49.702;8.618;2022-08-25T06:20:54;17.30;;;6.60;;
3217;SDS011;1621;49.702;8.618;2022-08-25T06:23:20;11.47;;;6.00;;
3217;SDS011;1621;49.702;8.618;2022-08-25T06:25:49;9.40;;;6.50;;
3217;SDS011;1621;49.702;8.618;2022-08-25T06:28:15;10.83;;;6.33;;
3217;SDS011;1621;49.702;8.618;2022-08-25T06:30:42;6.93;;;5.80;;
3217;SDS011;1621;49.702;8.618;2022-08-25T06:33:08;10.60;;;6.67;;
3217;SDS011;1621;49.702;8.618;2022-08-25T06:35:35;10.20;;;6.40;;
3217;SDS011;1621;49.702;8.618;2022-08-25T06:38:02;8.73;;;6.07;;
3217;SDS011;1621;49.702;8.618;2022-08-25T06:40:28;9.17;;;5.93;;
3217;SDS011;1621;49.702;8.618;2022-08-25T06:42:56;12.63;;;6.50;;
3217;SDS011;1621;49.702;8.618;2022-08-25T06:45:22;15.97;;;6.00;;
3217;SDS011;1621;49.702;8.618;2022-08-25T06:47:48;10.23;;;6.53;;
3217;SDS011;1621;49.702;8.618;2022-08-25T06:50:16;9.67;;;6.40;;
3217;SDS011;1621;49.702;8.618;2022-08-25T06:52:43;11.00;;;6.50;;
3217;SDS011;1621;49.702;8.618;2022-08-25T06:55:09;15.40;;;6.37;;
3217;SDS011;1621;49.702;8.618;2022-08-25T06:57:36;11.50;;;6.60;;
3217;SDS011;1621;49.702;8.618;2022-08-25T07:00:04;7.57;;;6.10;;
3217;SDS011;1621;49.702;8.618;2022-08-25T07:02:31;17.70;;;7.80;;
3217;SDS011;1621;49.702;8.618;2022-08-25T07:04:57;13.00;;;6.10;;
3217;SDS011;1621;49.702;8.618;2022-08-25T07:07:24;16.60;;;6.77;;
3217;SDS011;1621;49.702;8.618;2022-08-25T07:09:50;11.10;;;7.23;;
3217;SDS011;1621;49.702;8.618;2022-08-25T07:12:16;15.00;;;6.70;;
3217;SDS011;1621;49.702;8.618;2022-08-25T07:14:43;7.23;;;5.80;;
3217;SDS011;1621;49.702;8.618;2022-08-25T07:17:11;8.30;;;6.63;;
3217;SDS011;1621;49.702;8.618;2022-08-25T07:19:37;7.80;;;6.40;;
3217;SDS011;1621;49.702;8.618;2022-08-25T07:22:03;7.73;;;5.80;;
3217;SDS011;1621;49.702;8.618;2022-08-25T07:24:29;8.53;;;6.67;;
3217;SDS011;1621;49.702;8.618;2022-08-25T07:26:56;9.90;;;6.97;;
3217;SDS011;1621;49.702;8.618;2022-08-25T07:29:23;10.87;;;6.30;;
3217;SDS011;1621;49.702;8.618;2022-08-25T07:31:50;10.43;;;7.00;;
3217;SDS011;1621;49.702;8.618;2022-08-25T07:34:18;9.07;;;7.13;;
3217;SDS011;1621;49.702;8.618;2022-08-25T07:37:02;11.80;;;5.97;;
3217;SDS011;1621;49.702;8.618;2022-08-25T07:39:29;8.20;;;5.70;;
3217;SDS011;1621;49.702;8.618;2022-08-25T07:41:56;8.93;;;6.30;;
3217;SDS011;1621;49.702;8.618;2022-08-25T07:44:23;7.57;;;6.10;;
3217;SDS011;1621;49.702;8.618;2022-08-25T07:46:49;8.33;;;6.47;;
3217;SDS011;1621;49.702;8.618;2022-08-25T07:49:17;8.77;;;6.40;;
3217;SDS011;1621;49.702;8.618;2022-08-25T07:51:44;9.20;;;6.50;;
3217;SDS011;1621;49.702;8.618;2022-08-25T07:54:11;8.10;;;5.77;;
3217;SDS011;1621;49.702;8.618;2022-08-25T07:56:37;9.17;;;6.73;;
3217;SDS011;1621;49.702;8.618;2022-08-25T07:59:05;9.90;;;6.70;;
3217;SDS011;1621;49.702;8.618;2022-08-25T08:01:32;18.97;;;6.40;;
3217;SDS011;1621;49.702;8.618;2022-08-25T08:03:58;27.77;;;9.23;;
3217;SDS011;1621;49.702;8.618;2022-08-25T08:06:26;9.67;;;6.23;;
3217;SDS011;1621;49.702;8.618;2022-08-25T08:08:52;28.10;;;9.10;;
3217;SDS011;1621;49.702;8.618;2022-08-25T08:11:20;19.77;;;7.10;;
3217;SDS011;1621;49.702;8.618;2022-08-25T08:13:47;23.93;;;7.80;;
3217;SDS011;1621;49.702;8.618;2022-08-25T08:16:16;30.63;;;9.67;;
3217;SDS011;1621;49.702;8.618;2022-08-25T08:18:43;26.10;;;7.87;;
3217;SDS011;1621;49.702;8.618;2022-08-25T08:21:10;15.00;;;6.70;;
3217;SDS011;1621;49.702;8.618;2022-08-25T08:23:38;10.10;;;5.73;;
3217;SDS011;1621;49.702;8.618;2022-08-25T08:26:04;13.80;;;6.70;;
3217;SDS011;1621;49.702;8.618;2022-08-25T08:28:30;6.47;;;4.97;;
3217;SDS011;1621;49.702;8.618;2022-08-25T08:30:57;6.83;;;5.00;;
3217;SDS011;1621;49.702;8.618;2022-08-25T08:33:23;6.83;;;5.50;;
3217;SDS011;1621;49.702;8.618;2022-08-25T08:35:57;7.57;;;6.23;;
3217;SDS011;1621;49.702;8.618;2022-08-25T08:38:23;7.27;;;5.47;;
3217;SDS011;1621;49.702;8.618;2022-08-25T08:40:53;6.50;;;5.57;;
3217;SDS011;1621;49.702;8.618;2022-08-25T08:43:41;6.30;;;5.03;;
3217;SDS011;1621;49.702;8.618;2022-08-25T08:46:08;7.37;;;5.93;;
3217;SDS011;1621;49.702;8.618;2022-08-25T08:51:20;5.87;;;5.20;;
3217;SDS011;1621;49.702;8.618;2022-08-25T08:53:49;6.53;;;5.30;;
3217;SDS011;1621;49.702;8.618;2022-08-25T08:56:19;8.17;;;5.00;;
3217;SDS011;1621;49.702;8.618;2022-08-25T08:58:47;7.00;;;4.47;;
3217;SDS011;1621;49.702;8.618;2022-08-25T09:01:15;5.50;;;4.83;;
3217;SDS011;1621;49.702;8.618;2022-08-25T09:03:43;8.60;;;5.60;;
3217;SDS011;1621;49.702;8.618;2022-08-25T09:06:12;10.30;;;5.40;;
3217;SDS011;1621;49.702;8.618;2022-08-25T09:08:42;8.40;;;5.17;;
3217;SDS011;1621;49.702;8.618;2022-08-25T09:11:10;8.53;;;4.80;;
3217;SDS011;1621;49.702;8.618;2022-08-25T09:13:43;5.90;;;4.90;;
3217;SDS011;1621;49.702;8.618;2022-08-25T09:16:13;7.40;;;5.73;;
3217;SDS011;1621;49.702;8.618;2022-08-25T09:19:06;6.57;;;4.83;;
3217;SDS011;1621;49.702;8.618;2022-08-25T09:21:37;7.07;;;5.23;;
3217;SDS011;1621;49.702;8.618;2022-08-25T09:24:10;8.43;;;5.30;;
3217;SDS011;1621;49.702;8.618;2022-08-25T09:26:38;6.03;;;5.10;;
3217;SDS011;1621;49.702;8.618;2022-08-25T09:29:12;5.50;;;4.53;;
3217;SDS011;1621;49.702;8.618;2022-08-25T09:31:39;7.00;;;4.93;;
3217;SDS011;1621;49.702;8.618;2022-08-25T09:34:15;5.23;;;4.60;;
3217;SDS011;1621;49.702;8.618;2022-08-25T09:36:42;6.87;;;4.97;;
3217;SDS011;1621;49.702;8.618;2022-08-25T09:39:09;5.67;;;5.07;;
3217;SDS011;1621;49.702;8.618;2022-08-25T09:41:41;8.73;;;5.23;;
3217;SDS011;1621;49.702;8.618;2022-08-25T09:44:16;8.80;;;4.90;;
3217;SDS011;1621;49.702;8.618;2022-08-25T09:46:52;8.70;;;5.27;;
3217;SDS011;1621;49.702;8.618;2022-08-25T09:49:19;9.80;;;4.50;;
3217;SDS011;1621;49.702;8.618;2022-08-25T09:51:45;6.20;;;5.00;;
3217;SDS011;1621;49.702;8.618;2022-08-25T09:54:15;6.83;;;4.80;;
3217;SDS011;1621;49.702;8.618;2022-08-25T09:56:47;5.43;;;4.63;;
3217;SDS011;1621;49.702;8.618;2022-08-25T09:59:18;5.30;;;4.67;;
3217;SDS011;1621;49.702;8.618;2022-08-25T10:01:46;6.13;;;5.07;;
3217;SDS011;1621;49.702;8.618;2022-08-25T10:04:12;5.13;;;4.63;;
3217;SDS011;1621;49.702;8.618;2022-08-25T10:06:41;6.97;;;4.80;;
3217;SDS011;1621;49.702;8.618;2022-08-25T10:09:27;6.67;;;4.57;;
3217;SDS011;1621;49.702;8.618;2022-08-25T10:11:55;7.03;;;4.77;;
3217;SDS011;1621;49.702;8.618;2022-08-25T10:14:27;5.43;;;4.60;;
3217;SDS011;1621;49.702;8.618;2022-08-25T10:17:10;6.50;;;4.50;;
3217;SDS011;1621;49.702;8.618;2022-08-25T10:19:36;5.23;;;4.57;;
3217;SDS011;1621;49.702;8.618;2022-08-25T10:22:04;5.53;;;4.07;;
3217;SDS011;1621;49.702;8.618;2022-08-25T10:24:30;5.20;;;4.23;;
3217;SDS011;1621;49.702;8.618;2022-08-25T10:26:57;4.93;;;4.10;;
3217;SDS011;1621;49.702;8.618;2022-08-25T10:29:32;4.80;;;4.20;;
3217;SDS011;1621;49.702;8.618;2022-08-25T10:32:04;4.53;;;4.07;;
3217;SDS011;1621;49.702;8.618;2022-08-25T10:34:35;4.80;;;3.80;;
3217;SDS011;1621;49.702;8.618;2022-08-25T10:37:05;5.43;;;4.53;;
3217;SDS011;1621;49.702;8.618;2022-08-25T10:39:38;5.00;;;4.40;;
3217;SDS011;1621;49.702;8.618;2022-08-25T10:42:08;5.53;;;4.73;;
3217;SDS011;1621;49.702;8.618;2022-08-25T10:44:41;6.40;;;4.50;;
3217;SDS011;1621;49.702;8.618;2022-08-25T10:47:39;9.20;;;4.40;;
3217;SDS011;1621;49.702;8.618;2022-08-25T10:50:09;7.63;;;4.30;;
3217;SDS011;1621;49.702;8.618;2022-08-25T10:52:42;6.60;;;4.37;;
3217;SDS011;1621;49.702;8.618;2022-08-25T10:55:12;4.47;;;4.00;;
3217;SDS011;1621;49.702;8.618;2022-08-25T10:57:44;5.17;;;4.33;;
3217;SDS011;1621;49.702;8.618;2022-08-25T11:00:14;5.13;;;4.10;;
3217;SDS011;1621;49.702;8.618;2022-08-25T11:02:59;5.10;;;4.30;;
3217;SDS011;1621;49.702;8.618;2022-08-25T11:05:32;6.23;;;4.77;;
3217;SDS011;1621;49.702;8.618;2022-08-25T11:08:04;5.27;;;3.90;;
3217;SDS011;1621;49.702;8.618;2022-08-25T11:10:33;5.00;;;4.27;;
3217;SDS011;1621;49.702;8.618;2022-08-25T11:13:02;4.60;;;4.07;;
3217;SDS011;1621;49.702;8.618;2022-08-25T11:15:34;6.20;;;4.07;;
3217;SDS011;1621;49.702;8.618;2022-08-25T11:18:02;5.43;;;4.67;;
3217;SDS011;1621;49.702;8.618;2022-08-25T11:20:30;5.30;;;4.67;;
3217;SDS011;1621;49.702;8.618;2022-08-25T11:23:01;6.50;;;4.70;;
3217;SDS011;1621;49.702;8.618;2022-08-25T11:25:33;5.57;;;5.00;;
3217;SDS011;1621;49.702;8.618;2022-08-25T11:28:02;5.87;;;4.20;;
3217;SDS011;1621;49.702;8.618;2022-08-25T11:30:31;5.70;;;4.90;;
3217;SDS011;1621;49.702;8.618;2022-08-25T11:32:59;4.70;;;4.13;;
3217;SDS011;1621;49.702;8.618;2022-08-25T11:35:26;4.67;;;4.20;;
3217;SDS011;1621;49.702;8.618;2022-08-25T11:37:56;4.83;;;4.33;;
3217;SDS011;1621;49.702;8.618;2022-08-25T11:40:40;5.70;;;4.47;;
3217;SDS011;1621;49.702;8.618;2022-08-25T11:43:13;5.53;;;4.70;;
3217;SDS011;1621;49.702;8.618;2022-08-25T11:45:45;4.97;;;4.40;;
3217;SDS011;1621;49.702;8.618;2022-08-25T11:48:17;6.90;;;4.00;;
3217;SDS011;1621;49.702;8.618;2022-08-25T11:50:54;4.80;;;4.30;;
3217;SDS011;1621;49.702;8.618;2022-08-25T11:53:23;7.77;;;4.97;;
3217;SDS011;1621;49.702;8.618;2022-08-25T11:55:51;5.73;;;4.37;;
3217;SDS011;1621;49.702;8.618;2022-08-25T12:04:11;5.27;;;4.37;;
3217;SDS011;1621;49.702;8.618;2022-08-25T12:09:22;6.43;;;4.10;;
3217;SDS011;1621;49.702;8.618;2022-08-25T12:11:52;6.30;;;4.40;;
3217;SDS011;1621;49.702;8.618;2022-08-25T12:17:06;5.77;;;4.20;;
3217;SDS011;1621;49.702;8.618;2022-08-25T12:19:46;4.73;;;4.20;;
3217;SDS011;1621;49.702;8.618;2022-08-25T12:25:19;4.70;;;4.00;;
3217;SDS011;1621;49.702;8.618;2022-08-25T12:27:53;6.40;;;4.40;;
3217;SDS011;1621;49.702;8.618;2022-08-25T12:30:25;7.30;;;4.17;;
3217;SDS011;1621;49.702;8.618;2022-08-25T12:32:58;4.70;;;4.07;;
3217;SDS011;1621;49.702;8.618;2022-08-25T12:35:27;5.00;;;3.97;;
3217;SDS011;1621;49.702;8.618;2022-08-25T12:37:55;8.73;;;4.67;;
3217;SDS011;1621;49.702;8.618;2022-08-25T12:40:24;8.10;;;3.90;;
3217;SDS011;1621;49.702;8.618;2022-08-25T12:42:59;6.53;;;4.40;;
3217;SDS011;1621;49.702;8.618;2022-08-25T12:45:36;5.17;;;4.20;;
3217;SDS011;1621;49.702;8.618;2022-08-25T12:50:49;6.00;;;3.87;;
3217;SDS011;1621;49.702;8.618;2022-08-25T12:53:23;7.40;;;4.07;;
3217;SDS011;1621;49.702;8.618;2022-08-25T12:55:59;6.50;;;3.87;;
3217;SDS011;1621;49.702;8.618;2022-08-25T12:58:27;4.27;;;3.17;;
3217;SDS011;1621;49.702;8.618;2022-08-25T13:01:03;5.50;;;3.87;;
3217;SDS011;1621;49.702;8.618;2022-08-25T13:03:56;4.60;;;3.90;;
3217;SDS011;1621;49.702;8.618;2022-08-25T13:06:35;4.20;;;3.53;;
3217;SDS011;1621;49.702;8.618;2022-08-25T13:09:16;4.17;;;3.47;;
3217;SDS011;1621;49.702;8.618;2022-08-25T13:11:47;6.07;;;3.70;;
3217;SDS011;1621;49.702;8.618;2022-08-25T13:14:17;4.30;;;3.70;;
3217;SDS011;1621;49.702;8.618;2022-08-25T13:16:51;3.40;;;3.10;;
3217;SDS011;1621;49.702;8.618;2022-08-25T13:19:18;7.17;;;3.97;;
3217;SDS011;1621;49.702;8.618;2022-08-25T13:21:46;4.03;;;3.50;;
3217;SDS011;1621;49.702;8.618;2022-08-25T13:24:13;4.37;;;3.43;;
3217;SDS011;1621;49.702;8.618;2022-08-25T13:26:43;4.60;;;3.23;;
3217;SDS011;1621;49.702;8.618;2022-08-25T13:29:11;4.13;;;3.73;;
3217;SDS011;1621;49.702;8.618;2022-08-25T13:31:49;4.70;;;4.20;;
3217;SDS011;1621;49.702;8.618;2022-08-25T13:34:18;6.30;;;3.93;;
3217;SDS011;1621;49.702;8.618;2022-08-25T13:36:46;4.43;;;3.53;;
3217;SDS011;1621;49.702;8.618;2022-08-25T13:39:27;5.10;;;3.10;;
3217;SDS011;1621;49.702;8.618;2022-08-25T13:41:57;3.23;;;2.93;;
3217;SDS011;1621;49.702;8.618;2022-08-25T13:44:24;4.73;;;3.40;;
3217;SDS011;1621;49.702;8.618;2022-08-25T13:47:03;6.13;;;3.87;;
3217;SDS011;1621;49.702;8.618;2022-08-25T13:49:30;5.80;;;3.40;;
3217;SDS011;1621;49.702;8.618;2022-08-25T13:51:58;4.00;;;3.43;;
3217;SDS011;1621;49.702;8.618;2022-08-25T13:54:26;3.70;;;3.20;;
3217;SDS011;1621;49.702;8.618;2022-08-25T13:56:53;4.27;;;3.63;;
3217;SDS011;1621;49.702;8.618;2022-08-25T13:59:20;3.70;;;3.30;;
3217;SDS011;1621;49.702;8.618;2022-08-25T14:01:47;4.53;;;3.80;;
3217;SDS011;1621;49.702;8.618;2022-08-25T14:04:25;3.20;;;2.90;;
3217;SDS011;1621;49.702;8.618;2022-08-25T14:07:11;4.07;;;3.00;;
3217;SDS011;1621;49.702;8.618;2022-08-25T14:09:39;3.57;;;2.90;;
3217;SDS011;1621;49.702;8.618;2022-08-25T14:12:05;3.83;;;3.17;;
3217;SDS011;1621;49.702;8.618;2022-08-25T14:14:33;4.27;;;3.07;;
3217;SDS011;1621;49.702;8.618;2022-08-25T14:17:01;4.07;;;2.97;;
3217;SDS011;1621;49.702;8.618;2022-08-25T14:19:28;3.87;;;2.93;;
3217;SDS011;1621;49.702;8.618;2022-08-25T14:21:55;4.00;;;3.00;;
3217;SDS011;1621;49.702;8.618;2022-08-25T14:24:25;4.67;;;3.77;;
3217;SDS011;1621;49.702;8.618;2022-08-25T14:26:52;7.23;;;2.90;;
3217;SDS011;1621;49.702;8.618;2022-08-25T14:29:18;3.53;;;2.93;;
3217;SDS011;1621;49.702;8.618;2022-08-25T14:31:45;4.17;;;3.00;;
3217;SDS011;1621;49.702;8.618;2022-08-25T14:34:12;3.73;;;3.07;;
3217;SDS011;1621;49.702;8.618;2022-08-25T14:36:40;5.60;;;3.27;;
3217;SDS011;1621;49.702;8.618;2022-08-25T14:39:06;3.97;;;3.57;;
3217;SDS011;1621;49.702;8.618;2022-08-25T14:41:35;3.80;;;2.83;;
3217;SDS011;1621;49.702;8.618;2022-08-25T14:44:02;4.13;;;3.60;;
3217;SDS011;1621;49.702;8.618;2022-08-25T14:46:29;4.47;;;3.20;;
3217;SDS011;1621;49.702;8.618;2022-08-25T14:48:56;5.00;;;3.63;;
3217;SDS011;1621;49.702;8.618;2022-08-25T14:51:23;4.73;;;3.63;;
3217;SDS011;1621;49.702;8.618;2022-08-25T14:53:50;4.40;;;3.13;;
3217;SDS011;1621;49.702;8.618;2022-08-25T14:56:17;3.80;;;3.40;;
3217;SDS011;1621;49.702;8.618;2022-08-25T14:58:45;3.60;;;3.30;;
3217;SDS011;1621;49.702;8.618;2022-08-25T15:01:11;3.50;;;3.20;;
3217;SDS011;1621;49.702;8.618;2022-08-25T15:03:39;4.23;;;3.60;;
3217;SDS011;1621;49.702;8.618;2022-08-25T15:06:07;4.13;;;3.10;;
3217;SDS011;1621;49.702;8.618;2022-08-25T15:08:34;3.50;;;3.13;;
3217;SDS011;1621;49.702;8.618;2022-08-25T15:11:18;4.87;;;3.70;;
3217;SDS011;1621;49.702;8.618;2022-08-25T15:13:45;3.87;;;3.20;;
3217;SDS011;1621;49.702;8.618;2022-08-25T15:16:12;3.40;;;3.07;;
3217;SDS011;1621;49.702;8.618;2022-08-25T15:18:40;5.70;;;3.50;;
3217;SDS011;1621;49.702;8.618;2022-08-25T15:21:07;5.27;;;3.50;;
3217;SDS011;1621;49.702;8.618;2022-08-25T15:23:33;2.97;;;2.60;;
3217;SDS011;1621;49.702;8.618;2022-08-25T15:26:00;4.20;;;3.70;;
3217;SDS011;1621;49.702;8.618;2022-08-25T15:28:26;4.37;;;3.90;;
3217;SDS011;1621;49.702;8.618;2022-08-25T15:30:54;5.20;;;3.57;;
3217;SDS011;1621;49.702;8.618;2022-08-25T15:33:20;4.83;;;3.30;;
3217;SDS011;1621;49.702;8.618;2022-08-25T15:35:46;5.33;;;3.33;;
3217;SDS011;1621;49.702;8.618;2022-08-25T15:38:13;4.87;;;3.40;;
3217;SDS011;1621;49.702;8.618;2022-08-25T15:40:39;6.43;;;3.23;;